Weather at Chennai International Airport

Public forecast

Using degrees Celsius for public forecast. Weather courtesy of forecast.io.

Current aviation weather report (METAR) for Chennai International Airport

Retrieved 2020/12/03 00:30 UTC (0 seconds ago):

VOMM 030030Z 08008G18KT 1500 R25/1000 DZ SCT015 FEW025CB OVC080 26/25 Q1009 BECMG 2000 -DZ BR

Aviation forecast (TAF) for Chennai International Airport

Retrieved 2020-12-03 00:27 UTC (2 minutes ago):

TAF VOMM 022300Z 0300/0406 04010G25KT 3000 -RA/BR SCT018 OVC090 TEMPO 0300/0306 1500 TSRA/RA SCT015 FEW025CB OVC080 BECMG 0307/0308 2000 RA/BR TEMPO 0309/0315 1500 TSRA/RA SCT015 FEW025CB OVC080